sensor_id;sensor_type;location;lat;lon;timestamp;pressure;altitude;pressure_sealevel;temperature;humidity
31011;BME280;26395;53.412;19.598;2023-02-13T00:10:12;102000.98;;;7.24;100.00
31011;BME280;26395;53.412;19.598;2023-02-13T00:25:15;101988.92;;;7.33;100.00
31011;BME280;26395;53.412;19.598;2023-02-13T00:40:18;101987.35;;;7.37;100.00
31011;BME280;26395;53.412;19.598;2023-02-13T00:55:21;101978.73;;;7.46;100.00
31011;BME280;26395;53.412;19.598;2023-02-13T01:10:25;101973.05;;;7.55;100.00
31011;BME280;26395;53.412;19.598;2023-02-13T01:25:29;101965.77;;;7.59;100.00
31011;BME280;26395;53.412;19.598;2023-02-13T01:40:33;101967.88;;;7.43;100.00
31011;BME280;26395;53.412;19.598;2023-02-13T01:55:48;101959.69;;;7.29;100.00
31011;BME280;26395;53.412;19.598;2023-02-13T02:10:53;101954.70;;;7.24;100.00
31011;BME280;26395;53.412;19.598;2023-02-13T02:41:24;101943.48;;;7.36;100.00
31011;BME280;26395;53.412;19.598;2023-02-13T02:56:50;101949.70;;;7.41;100.00
31011;BME280;26395;53.412;19.598;2023-02-13T03:12:01;101956.73;;;7.43;100.00
31011;BME280;26395;53.412;19.598;2023-02-13T03:27:31;101965.79;;;7.43;100.00
31011;BME280;26395;53.412;19.598;2023-02-13T03:43:07;101976.36;;;7.48;100.00
31011;BME280;26395;53.412;19.598;2023-02-13T03:58:15;101979.68;;;7.44;100.00
31011;BME280;26395;53.412;19.598;2023-02-13T04:13:48;101978.72;;;7.39;100.00
31011;BME280;26395;53.412;19.598;2023-02-13T04:28:51;101981.98;;;7.39;100.00
31011;BME280;26395;53.412;19.598;2023-02-13T04:43:55;101987.23;;;7.39;100.00
31011;BME280;26395;53.412;19.598;2023-02-13T04:58:58;101978.16;;;7.43;100.00
31011;BME280;26395;53.412;19.598;2023-02-13T05:14:01;101977.17;;;7.42;100.00
31011;BME280;26395;53.412;19.598;2023-02-13T05:29:04;101992.42;;;7.55;100.00
31011;BME280;26395;53.412;19.598;2023-02-13T05:44:24;101998.06;;;7.64;100.00
31011;BME280;26395;53.412;19.598;2023-02-13T05:59:28;101981.36;;;7.67;100.00
31011;BME280;26395;53.412;19.598;2023-02-13T06:14:31;101987.47;;;7.56;100.00
31011;BME280;26395;53.412;19.598;2023-02-13T06:29:34;101983.86;;;7.59;100.00
31011;BME280;26395;53.412;19.598;2023-02-13T06:44:37;101993.61;;;7.66;100.00
31011;BME280;26395;53.412;19.598;2023-02-13T06:59:40;102001.55;;;7.67;99.85
31011;BME280;26395;53.412;19.598;2023-02-13T07:14:44;102002.80;;;7.71;98.82
31011;BME280;26395;53.412;19.598;2023-02-13T07:29:47;101995.95;;;7.79;97.31
31011;BME280;26395;53.412;19.598;2023-02-13T07:44:50;101996.25;;;7.84;96.39
31011;BME280;26395;53.412;19.598;2023-02-13T07:59:53;101977.40;;;7.84;95.81
31011;BME280;26395;53.412;19.598;2023-02-13T08:14:56;101971.11;;;7.85;95.07
31011;BME280;26395;53.412;19.598;2023-02-13T08:30:00;101972.55;;;8.01;94.34
31011;BME280;26395;53.412;19.598;2023-02-13T08:45:05;101977.73;;;8.02;94.27
31011;BME280;26395;53.412;19.598;2023-02-13T09:00:08;101969.61;;;8.04;94.22
31011;BME280;26395;53.412;19.598;2023-02-13T09:15:12;101984.02;;;7.95;94.02
31011;BME280;26395;53.412;19.598;2023-02-13T09:30:15;101969.19;;;8.02;93.87
31011;BME280;26395;53.412;19.598;2023-02-13T09:45:25;101960.82;;;8.20;93.12
31011;BME280;26395;53.412;19.598;2023-02-13T10:00:34;101968.77;;;8.31;92.86
31011;BME280;26395;53.412;19.598;2023-02-13T10:15:53;101968.66;;;8.44;91.92
31011;BME280;26395;53.412;19.598;2023-02-13T10:31:09;101963.52;;;8.59;90.87
31011;BME280;26395;53.412;19.598;2023-02-13T11:01:51;101921.02;;;9.06;88.30
31011;BME280;26395;53.412;19.598;2023-02-13T11:17:04;101910.98;;;9.27;86.42
31011;BME280;26395;53.412;19.598;2023-02-13T11:32:23;101903.70;;;9.41;84.89
31011;BME280;26395;53.412;19.598;2023-02-13T11:47:36;101896.52;;;9.78;84.16
31011;BME280;26395;53.412;19.598;2023-02-13T12:02:48;101883.39;;;11.17;78.72
31011;BME280;26395;53.412;19.598;2023-02-13T12:33:41;101849.37;;;10.15;80.30
31011;BME280;26395;53.412;19.598;2023-02-13T13:34:56;101827.96;;;9.79;79.45
31011;BME280;26395;53.412;19.598;2023-02-13T13:50:01;101823.44;;;9.61;80.19
31011;BME280;26395;53.412;19.598;2023-02-13T14:35:36;101811.02;;;9.28;80.75
31011;BME280;26395;53.412;19.598;2023-02-13T14:50:49;101792.17;;;9.19;80.15
31011;BME280;26395;53.412;19.598;2023-02-13T15:05:58;101791.80;;;9.08;80.03
31011;BME280;26395;53.412;19.598;2023-02-13T15:21:01;101811.45;;;9.12;79.27
31011;BME280;26395;53.412;19.598;2023-02-13T15:36:05;101814.44;;;9.08;79.38
31011;BME280;26395;53.412;19.598;2023-02-13T15:51:18;101811.11;;;9.06;79.65
31011;BME280;26395;53.412;19.598;2023-02-13T16:06:37;101806.37;;;9.12;78.76
31011;BME280;26395;53.412;19.598;2023-02-13T16:22:27;101806.04;;;8.90;79.51
31011;BME280;26395;53.412;19.598;2023-02-13T16:37:32;101812.99;;;8.84;78.83
31011;BME280;26395;53.412;19.598;2023-02-13T16:52:36;101821.08;;;8.74;78.52
31011;BME280;26395;53.412;19.598;2023-02-13T17:07:47;101833.66;;;8.60;78.66
31011;BME280;26395;53.412;19.598;2023-02-13T17:22:55;101848.55;;;8.40;79.13
31011;BME280;26395;53.412;19.598;2023-02-13T17:37:59;101864.80;;;8.39;79.10
31011;BME280;26395;53.412;19.598;2023-02-13T17:53:05;101880.66;;;8.33;79.21
31011;BME280;26395;53.412;19.598;2023-02-13T18:08:09;101889.79;;;8.28;79.40
31011;BME280;26395;53.412;19.598;2023-02-13T18:23:12;101877.70;;;8.29;79.22
31011;BME280;26395;53.412;19.598;2023-02-13T18:38:16;101882.58;;;8.29;79.32
31011;BME280;26395;53.412;19.598;2023-02-13T18:53:20;101888.34;;;8.22;79.24
31011;BME280;26395;53.412;19.598;2023-02-13T19:08:23;101903.36;;;8.22;79.35
31011;BME280;26395;53.412;19.598;2023-02-13T19:23:26;101910.85;;;8.05;80.06
31011;BME280;26395;53.412;19.598;2023-02-13T19:38:30;101915.14;;;8.03;80.02
31011;BME280;26395;53.412;19.598;2023-02-13T19:53:34;101920.82;;;7.84;80.60
31011;BME280;26395;53.412;19.598;2023-02-13T20:08:37;101920.57;;;7.50;81.09
31011;BME280;26395;53.412;19.598;2023-02-13T20:23:49;101933.88;;;7.19;81.85
31011;BME280;26395;53.412;19.598;2023-02-13T20:38:55;101947.85;;;6.95;82.96
31011;BME280;26395;53.412;19.598;2023-02-13T20:53:59;101946.60;;;6.81;83.98
31011;BME280;26395;53.412;19.598;2023-02-13T21:09:04;101952.08;;;6.60;84.63
31011;BME280;26395;53.412;19.598;2023-02-13T21:24:11;101953.59;;;6.25;85.43
31011;BME280;26395;53.412;19.598;2023-02-13T21:39:15;101950.19;;;6.02;85.63
31011;BME280;26395;53.412;19.598;2023-02-13T21:54:18;101942.83;;;5.78;86.09
31011;BME280;26395;53.412;19.598;2023-02-13T22:09:21;101948.33;;;5.54;87.10
31011;BME280;26395;53.412;19.598;2023-02-13T22:24:25;101958.56;;;5.55;87.12
31011;BME280;26395;53.412;19.598;2023-02-13T22:39:29;101954.59;;;5.41;86.70
31011;BME280;26395;53.412;19.598;2023-02-13T22:54:33;101955.23;;;5.19;87.89
31011;BME280;26395;53.412;19.598;2023-02-13T23:09:36;101962.02;;;5.14;87.76
31011;BME280;26395;53.412;19.598;2023-02-13T23:24:39;101971.88;;;4.97;89.34
31011;BME280;26395;53.412;19.598;2023-02-13T23:39:43;101967.33;;;4.93;89.94
31011;BME280;26395;53.412;19.598;2023-02-13T23:54:46;101973.77;;;4.88;91.11
